Time;durP1;ratioP1;P1;durP2;ratioP2;P2;SDS_P1;SDS_P2;PMS_P1;PMS_P2;Temp;Humidity;BMP_temperature;BMP_pressure;BME280_temperature;BME280_humidity;BME280_pressure;Samples;Min_cycle;Max_cycle;Signal;HPM_P1;HPM_P2
2021/03/03 00:01:02;;;;;;;56.47;28.65;;;;;;;1.94;100.00;102197.66;5193901;28;20013;-81
2021/03/03 00:03:32;;;;;;;61.30;28.80;;;;;;;1.89;100.00;102188.94;5196714;28;20033;-80
2021/03/03 00:06:03;;;;;;;65.30;29.27;;;;;;;1.84;100.00;102191.38;5192599;28;20024;-80
2021/03/03 00:08:33;;;;;;;55.65;26.60;;;;;;;1.79;100.00;102192.13;5190059;28;20155;-80
2021/03/03 00:11:03;;;;;;;55.55;27.38;;;;;;;1.70;100.00;102184.16;5183750;28;20101;-80
2021/03/03 00:13:33;;;;;;;54.78;27.15;;;;;;;1.68;100.00;102197.81;5184376;28;20038;-80
2021/03/03 00:16:04;;;;;;;54.40;26.52;;;;;;;1.60;100.00;102187.31;5183303;28;20503;-80
2021/03/03 00:18:34;;;;;;;64.43;29.40;;;;;;;1.67;100.00;102191.81;5183076;28;20093;-80
2021/03/03 00:21:05;;;;;;;56.20;27.35;;;;;;;1.55;100.00;102181.19;5184221;28;20088;-80
2021/03/03 00:23:35;;;;;;;60.67;28.38;;;;;;;1.59;100.00;102190.72;5183895;28;20435;-80
2021/03/03 00:26:05;;;;;;;59.20;27.83;;;;;;;1.59;100.00;102189.88;5186170;28;20241;-80
2021/03/03 00:28:35;;;;;;;63.25;28.35;;;;;;;1.60;100.00;102187.31;5192885;28;20422;-80
2021/03/03 00:31:06;;;;;;;58.33;27.13;;;;;;;1.53;100.00;102187.09;5189543;28;20049;-80
2021/03/03 00:33:36;;;;;;;52.63;26.55;;;;;;;1.58;100.00;102185.56;5190693;28;20099;-80
2021/03/03 00:36:06;;;;;;;53.58;26.33;;;;;;;1.40;100.00;102187.63;5195789;28;20017;-80
2021/03/03 00:38:37;;;;;;;57.53;27.40;;;;;;;1.37;100.00;102185.84;5189231;28;20034;-81
2021/03/03 00:41:07;;;;;;;50.92;25.15;;;;;;;1.37;100.00;102175.53;5187209;28;20431;-80
2021/03/03 00:43:38;;;;;;;54.25;25.42;;;;;;;1.25;100.00;102170.06;5187296;28;20474;-80
2021/03/03 00:46:08;;;;;;;52.40;25.40;;;;;;;1.28;100.00;102183.03;5188491;28;20026;-80
2021/03/03 00:48:38;;;;;;;55.25;25.50;;;;;;;1.27;100.00;102172.69;5186876;28;20204;-81
2021/03/03 00:51:09;;;;;;;59.25;28.10;;;;;;;1.30;100.00;102167.59;5186535;28;20513;-80
2021/03/03 00:53:39;;;;;;;53.60;25.55;;;;;;;1.35;100.00;102172.06;5187931;28;20030;-80
2021/03/03 00:56:09;;;;;;;64.25;28.63;;;;;;;1.43;100.00;102167.13;5187417;28;20018;-80
2021/03/03 00:58:39;;;;;;;59.33;28.48;;;;;;;1.40;100.00;102165.31;5187213;28;20034;-80
2021/03/03 01:01:10;;;;;;;59.63;27.15;;;;;;;1.38;100.00;102168.69;5186733;28;20496;-80
2021/03/03 01:03:40;;;;;;;54.53;26.85;;;;;;;1.45;100.00;102168.03;5192677;28;20025;-80
2021/03/03 01:06:10;;;;;;;62.35;28.05;;;;;;;1.33;100.00;102163.41;5194750;28;20377;-79
2021/03/03 01:08:41;;;;;;;65.78;30.35;;;;;;;1.36;100.00;102149.72;5191087;28;20136;-80
2021/03/03 01:11:11;;;;;;;66.50;30.20;;;;;;;1.37;100.00;102154.94;5191786;28;20502;-80
2021/03/03 01:13:42;;;;;;;64.78;29.52;;;;;;;1.42;100.00;102153.34;5189946;28;20029;-80
2021/03/03 01:16:12;;;;;;;69.07;30.55;;;;;;;1.52;100.00;102151.88;5186684;28;20044;-79
2021/03/03 01:18:43;;;;;;;67.53;31.10;;;;;;;1.56;100.00;102144.28;5183927;28;20115;-79
2021/03/03 01:21:13;;;;;;;70.32;30.90;;;;;;;1.59;100.00;102136.63;5183295;28;20522;-80
2021/03/03 01:23:43;;;;;;;66.32;31.17;;;;;;;1.55;100.00;102139.09;5185972;28;20498;-80
2021/03/03 01:26:14;;;;;;;65.57;30.65;;;;;;;1.52;100.00;102128.69;5194359;28;20057;-80
2021/03/03 01:28:44;;;;;;;68.65;31.08;;;;;;;1.45;100.00;102130.28;5195008;28;20030;-80
2021/03/03 01:31:14;;;;;;;63.95;29.88;;;;;;;1.38;100.00;102128.34;5194020;28;20021;-80
2021/03/03 01:33:45;;;;;;;58.78;28.40;;;;;;;1.54;100.00;102125.34;5189042;28;20049;-80
2021/03/03 01:36:15;;;;;;;54.40;25.75;;;;;;;1.37;100.00;102124.03;5184679;28;20026;-80
2021/03/03 01:38:45;;;;;;;59.25;28.90;;;;;;;1.35;100.00;102123.13;5177738;28;20037;-81
2021/03/03 01:41:16;;;;;;;61.08;29.08;;;;;;;1.21;100.00;102116.75;5182619;28;20505;-81
2021/03/03 01:43:46;;;;;;;60.92;29.25;;;;;;;1.35;100.00;102115.41;5183475;28;20034;-80
2021/03/03 01:46:16;;;;;;;56.42;27.65;;;;;;;1.29;100.00;102101.50;5203352;28;20502;-81
2021/03/03 01:48:46;;;;;;;56.10;27.83;;;;;;;1.49;100.00;102093.44;5187212;28;20060;-80
2021/03/03 01:51:17;;;;;;;61.58;29.25;;;;;;;1.28;100.00;102092.03;5194257;28;20029;-80
2021/03/03 01:53:48;;;;;;;66.35;30.38;;;;;;;1.44;100.00;102086.44;5186366;28;20475;-80
2021/03/03 01:56:18;;;;;;;67.03;30.88;;;;;;;1.48;100.00;102086.56;5199952;28;20022;-81
2021/03/03 01:58:49;;;;;;;65.88;30.88;;;;;;;1.57;100.00;102088.50;5185640;28;20034;-81
2021/03/03 02:01:19;;;;;;;67.15;30.00;;;;;;;1.64;100.00;102082.66;5188356;28;20022;-82
2021/03/03 02:03:49;;;;;;;66.72;31.50;;;;;;;1.64;100.00;102083.53;5201033;28;20112;-81
2021/03/03 02:06:49;;;;;;;65.03;29.13;;;;;;;1.66;100.00;102075.81;5200786;28;20083;-81
2021/03/03 02:09:29;;;;;;;60.00;29.65;;;;;;;1.61;100.00;102083.44;5189550;28;20116;-82
2021/03/03 02:12:22;;;;;;;62.53;28.17;;;;;;;1.40;100.00;102076.91;5186173;28;20522;-82
2021/03/03 02:14:55;;;;;;;60.65;29.40;;;;;;;1.43;100.00;102074.41;5187251;28;20348;-81
2021/03/03 02:17:29;;;;;;;65.78;29.92;;;;;;;1.38;100.00;102070.84;5177754;28;20045;-82
2021/03/03 02:20:06;;;;;;;69.97;31.52;;;;;;;1.28;100.00;102072.31;5179954;28;20048;-81
2021/03/03 02:22:56;;;;;;;72.68;33.50;;;;;;;1.31;100.00;102072.38;5186465;28;20093;-79
2021/03/03 02:25:27;;;;;;;77.93;34.28;;;;;;;1.18;100.00;102065.19;5182053;28;20029;-82
2021/03/03 02:28:05;;;;;;;75.47;33.78;;;;;;;1.21;100.00;102059.25;5191658;28;20033;-82
2021/03/03 02:33:16;;;;;;;74.95;33.63;;;;;;;1.26;100.00;102053.34;5209354;28;20581;-81
2021/03/03 02:35:47;;;;;;;71.82;31.92;;;;;;;1.25;100.00;102051.63;5210867;28;20474;-81
2021/03/03 02:38:18;;;;;;;68.00;31.38;;;;;;;1.21;100.00;102054.09;5210178;28;20188;-81
2021/03/03 02:40:49;;;;;;;68.38;31.77;;;;;;;1.23;100.00;102050.72;5201614;28;20419;-81
2021/03/03 02:43:20;;;;;;;66.45;31.15;;;;;;;1.33;100.00;102044.97;5199740;28;20021;-81
2021/03/03 02:45:50;;;;;;;67.70;31.50;;;;;;;1.36;100.00;102044.16;5212481;28;20026;-81
2021/03/03 02:48:21;;;;;;;65.03;30.45;;;;;;;1.37;100.00;102045.94;5184513;28;20036;-80
2021/03/03 02:50:51;;;;;;;64.20;30.48;;;;;;;1.44;100.00;102033.22;5201069;28;20026;-81
2021/03/03 02:53:21;;;;;;;57.15;27.77;;;;;;;1.34;100.00;102041.56;5186366;28;20158;-81
2021/03/03 02:55:52;;;;;;;64.28;30.05;;;;;;;1.23;100.00;102037.84;5186020;28;20026;-81
2021/03/03 02:58:22;;;;;;;60.88;29.55;;;;;;;1.09;100.00;102035.75;5185962;28;20661;-81
2021/03/03 03:00:54;;;;;;;62.50;29.83;;;;;;;1.14;100.00;102032.47;5183437;28;20029;-81
2021/03/03 03:03:34;;;;;;;63.30;30.20;;;;;;;1.07;100.00;102034.84;5185962;28;20022;-81
2021/03/03 03:06:13;;;;;;;70.00;32.00;;;;;;;1.21;100.00;102043.81;5185003;28;20018;-81
2021/03/03 03:08:44;;;;;;;68.72;31.88;;;;;;;1.20;100.00;102031.75;5191770;28;20384;-80
2021/03/03 03:11:24;;;;;;;65.80;30.73;;;;;;;1.17;100.00;102029.97;5200700;28;20033;-81
2021/03/03 03:14:01;;;;;;;63.22;30.05;;;;;;;1.09;100.00;102028.88;5194445;28;20116;-81
2021/03/03 03:16:33;;;;;;;63.63;29.35;;;;;;;1.19;100.00;102030.88;5190131;28;20040;-81
2021/03/03 03:19:07;;;;;;;60.47;29.50;;;;;;;1.18;100.00;102029.13;5195191;28;20022;-81
2021/03/03 03:21:39;;;;;;;63.22;28.95;;;;;;;0.98;100.00;102030.34;5194706;28;20429;-81
2021/03/03 03:24:10;;;;;;;63.67;29.63;;;;;;;0.94;100.00;102035.34;5204224;28;20491;-81
2021/03/03 03:26:41;;;;;;;57.88;27.60;;;;;;;1.02;100.00;102034.72;5194179;28;20043;-81
2021/03/03 03:29:12;;;;;;;60.08;27.88;;;;;;;0.92;100.00;102037.03;5185596;28;20109;-81
2021/03/03 03:31:44;;;;;;;54.38;26.58;;;;;;;0.84;100.00;102034.25;5186493;28;20033;-81
2021/03/03 03:34:16;;;;;;;52.72;26.42;;;;;;;0.93;100.00;102039.59;5185599;28;20034;-80
2021/03/03 03:36:47;;;;;;;57.70;27.77;;;;;;;1.05;100.00;102039.09;5183841;28;20095;-81
2021/03/03 03:39:17;;;;;;;55.85;27.02;;;;;;;0.95;100.00;102039.66;5189537;28;20033;-81
2021/03/03 03:41:49;;;;;;;54.38;26.27;;;;;;;1.02;100.00;102038.97;5183460;28;20042;-81
2021/03/03 03:44:20;;;;;;;59.67;26.67;;;;;;;0.87;100.00;102051.47;5185233;28;20380;-81
2021/03/03 03:46:51;;;;;;;57.22;26.90;;;;;;;0.86;100.00;102053.16;5199275;28;20018;-80
2021/03/03 03:49:23;;;;;;;58.05;28.02;;;;;;;0.88;100.00;102043.78;5184277;28;20092;-81
2021/03/03 03:51:54;;;;;;;63.13;29.05;;;;;;;0.82;100.00;102042.72;5198895;28;20121;-81
2021/03/03 03:54:24;;;;;;;61.70;28.90;;;;;;;1.01;100.00;102045.84;5199581;28;20022;-80
2021/03/03 03:56:54;;;;;;;59.60;27.98;;;;;;;0.96;100.00;102044.88;5199441;28;20049;-80
2021/03/03 03:59:25;;;;;;;57.40;27.63;;;;;;;0.82;100.00;102042.72;5184660;28;20446;-81
2021/03/03 04:01:55;;;;;;;59.38;26.75;;;;;;;0.79;100.00;102042.66;5182647;28;20029;-81
2021/03/03 04:04:25;;;;;;;58.50;27.25;;;;;;;0.79;100.00;102047.81;5199283;28;20049;-81
2021/03/03 04:06:55;;;;;;;57.72;26.60;;;;;;;0.68;100.00;102050.09;5184711;28;20701;-81
2021/03/03 04:09:26;;;;;;;51.72;26.60;;;;;;;0.67;100.00;102050.03;5193041;28;20030;-81
2021/03/03 04:11:57;;;;;;;55.50;27.25;;;;;;;0.69;100.00;102046.69;5212957;28;20630;-81
2021/03/03 04:14:27;;;;;;;50.75;25.02;;;;;;;0.75;100.00;102049.41;5190310;28;20056;-81
2021/03/03 04:16:57;;;;;;;50.83;26.13;;;;;;;0.76;100.00;102048.59;5183770;28;20026;-81
2021/03/03 04:19:28;;;;;;;53.60;25.50;;;;;;;0.84;100.00;102052.25;5166865;28;20057;-81
2021/03/03 04:21:58;;;;;;;51.95;25.13;;;;;;;0.75;100.00;102044.25;5180175;28;20056;-81
2021/03/03 04:24:28;;;;;;;49.85;23.52;;;;;;;0.69;100.00;102046.69;5202240;28;20029;-81
2021/03/03 04:26:58;;;;;;;48.33;24.15;;;;;;;0.75;100.00;102051.97;5193753;28;20026;-81
2021/03/03 04:29:29;;;;;;;48.08;24.10;;;;;;;0.69;100.00;102050.97;5192311;28;20033;-81
2021/03/03 04:31:59;;;;;;;49.30;23.83;;;;;;;0.66;100.00;102056.91;5203245;28;20050;-81
2021/03/03 04:34:29;;;;;;;52.10;24.38;;;;;;;0.66;100.00;102038.88;5195415;28;20034;-81
2021/03/03 04:37:00;;;;;;;50.22;23.92;;;;;;;0.71;100.00;102037.31;5196429;28;20490;-81
2021/03/03 04:39:30;;;;;;;48.58;23.60;;;;;;;0.58;100.00;102042.06;5201473;28;20029;-81
2021/03/03 04:42:03;;;;;;;55.17;25.02;;;;;;;0.64;100.00;102032.84;5187913;28;20025;-81
2021/03/03 04:44:33;;;;;;;48.22;23.92;;;;;;;0.93;100.00;102036.19;5187109;28;20065;-80
2021/03/03 04:47:03;;;;;;;50.92;23.42;;;;;;;0.92;100.00;102035.28;5188616;28;20472;-81
2021/03/03 04:49:33;;;;;;;45.70;22.48;;;;;;;0.98;100.00;102032.91;5190210;28;20070;-81
2021/03/03 04:52:04;;;;;;;41.55;21.25;;;;;;;0.93;100.00;102037.03;5194865;28;20026;-80
2021/03/03 04:54:35;;;;;;;46.17;22.88;;;;;;;0.87;100.00;102031.75;5220036;28;20021;-81
2021/03/03 04:57:05;;;;;;;46.47;22.30;;;;;;;0.87;100.00;102031.75;5190671;28;20463;-81
2021/03/03 04:59:36;;;;;;;47.35;22.70;;;;;;;0.60;100.00;102028.44;5184148;28;20042;-81
2021/03/03 05:02:07;;;;;;;45.38;23.60;;;;;;;0.43;100.00;102021.97;5199397;28;20025;-81
2021/03/03 05:04:37;;;;;;;52.33;24.80;;;;;;;0.56;100.00;102018.88;5199313;28;20475;-81
2021/03/03 05:07:07;;;;;;;48.15;23.58;;;;;;;0.66;100.00;102018.31;5204020;28;20029;-81
2021/03/03 05:09:37;;;;;;;48.00;24.20;;;;;;;0.74;100.00;102021.94;5183346;28;20663;-80
2021/03/03 05:12:08;;;;;;;46.15;23.92;;;;;;;0.74;100.00;102023.66;5186087;28;20029;-81
2021/03/03 05:14:38;;;;;;;47.28;23.45;;;;;;;0.80;100.00;102019.56;5192707;28;20052;-81
2021/03/03 05:17:09;;;;;;;49.55;23.48;;;;;;;0.66;100.00;102020.88;5201747;28;20475;-80
2021/03/03 05:19:39;;;;;;;44.35;22.23;;;;;;;0.49;100.00;102011.84;5185651;28;20033;-81
2021/03/03 05:22:09;;;;;;;51.47;24.00;;;;;;;0.42;100.00;102015.03;5201724;28;20041;-80
2021/03/03 05:24:40;;;;;;;49.97;24.20;;;;;;;0.30;100.00;102019.88;5183888;28;20484;-80
2021/03/03 05:27:10;;;;;;;46.55;23.40;;;;;;;0.38;100.00;102007.22;5182473;28;20080;-81
2021/03/03 05:29:41;;;;;;;48.13;24.10;;;;;;;0.25;100.00;102016.28;5198079;28;20128;-81
2021/03/03 05:32:11;;;;;;;53.83;24.92;;;;;;;0.32;100.00;102002.78;5190849;28;20033;-80
2021/03/03 05:34:41;;;;;;;56.10;26.00;;;;;;;0.43;100.00;102003.06;5206901;28;20176;-80
2021/03/03 05:37:12;;;;;;;53.53;24.90;;;;;;;0.55;100.00;101996.56;5216662;28;20077;-80
2021/03/03 05:39:42;;;;;;;49.47;23.85;;;;;;;0.48;100.00;101998.91;5206413;28;20021;-81
2021/03/03 05:42:13;;;;;;;51.42;24.05;;;;;;;0.40;100.00;101991.00;5193556;28;20026;-81
2021/03/03 05:44:47;;;;;;;52.53;24.15;;;;;;;0.55;100.00;101990.56;5194402;28;20022;-80
2021/03/03 05:47:19;;;;;;;47.85;23.63;;;;;;;0.53;100.00;101992.22;5209507;28;20022;-80
2021/03/03 05:49:51;;;;;;;46.33;22.83;;;;;;;0.45;100.00;101989.44;5197976;28;20060;-80
2021/03/03 05:52:22;;;;;;;48.40;23.38;;;;;;;0.48;100.00;101994.66;5189330;28;20032;-80
2021/03/03 05:54:54;;;;;;;45.10;22.38;;;;;;;0.51;100.00;101993.84;5183608;28;20032;-81
2021/03/03 05:57:25;;;;;;;42.38;22.60;;;;;;;0.56;100.00;101993.16;5176421;28;20479;-80
2021/03/03 05:59:56;;;;;;;47.03;22.48;;;;;;;0.51;100.00;101988.72;5180437;28;20022;-81
2021/03/03 06:02:28;;;;;;;44.35;22.27;;;;;;;0.77;100.00;101992.88;5185394;28;20022;-80
2021/03/03 06:04:59;;;;;;;45.67;22.25;;;;;;;0.51;100.00;101996.44;5185793;28;20084;-81
2021/03/03 06:07:30;;;;;;;46.95;22.33;;;;;;;0.59;100.00;101993.25;5186199;28;20488;-80
2021/03/03 06:10:01;;;;;;;42.20;21.00;;;;;;;0.83;100.00;101988.75;5201325;28;20075;-80
2021/03/03 06:12:31;;;;;;;43.65;21.95;;;;;;;0.66;100.00;101996.84;5193112;28;20025;-79
2021/03/03 06:15:02;;;;;;;41.33;20.80;;;;;;;0.64;100.00;101986.53;5191666;28;20475;-79
2021/03/03 06:17:32;;;;;;;40.42;20.35;;;;;;;0.71;100.00;101998.72;5203210;28;20025;-80
2021/03/03 06:20:04;;;;;;;42.00;20.70;;;;;;;0.47;100.00;101992.94;5184230;28;20025;-80
2021/03/03 06:22:34;;;;;;;47.20;21.75;;;;;;;0.37;100.00;101996.06;5204725;28;20026;-80
2021/03/03 06:25:25;;;;;;;44.20;21.30;;;;;;;0.47;100.00;101989.47;5208625;28;20035;-80
2021/03/03 06:27:55;;;;;;;46.20;20.55;;;;;;;0.43;100.00;101991.09;5185086;28;20125;-80
2021/03/03 06:30:29;;;;;;;41.63;20.90;;;;;;;0.71;100.00;101983.28;5184971;28;20180;-80
2021/03/03 06:33:01;;;;;;;39.72;20.45;;;;;;;0.94;100.00;101987.34;5185250;28;20475;-79
2021/03/03 06:35:38;;;;;;;39.33;19.45;;;;;;;0.96;100.00;101984.78;5180296;28;20152;-79
2021/03/03 06:38:12;;;;;;;40.15;19.92;;;;;;;1.08;100.00;101987.69;5198095;28;20082;-80
2021/03/03 06:40:55;;;;;;;34.95;18.08;;;;;;;1.06;100.00;101981.63;5176706;28;20089;-80
2021/03/03 06:43:28;;;;;;;39.20;19.33;;;;;;;1.14;100.00;101986.13;5181258;28;20045;-79
2021/03/03 06:46:18;;;;;;;40.97;19.70;;;;;;;1.00;100.00;101984.91;5187260;28;20053;-80
2021/03/03 06:48:49;;;;;;;37.55;19.23;;;;;;;1.18;100.00;101984.47;5195650;28;20038;-80
2021/03/03 06:51:31;;;;;;;41.63;20.17;;;;;;;1.17;100.00;101985.31;5181877;28;20029;-79
2021/03/03 06:54:04;;;;;;;38.95;19.40;;;;;;;1.39;100.00;101982.44;5183884;28;20109;-78
2021/03/03 06:56:36;;;;;;;39.08;19.90;;;;;;;1.20;100.00;101986.28;5182240;28;20360;-79
2021/03/03 06:59:27;;;;;;;43.63;20.38;;;;;;;1.29;100.00;101978.78;5199610;28;20033;-79
2021/03/03 07:02:08;;;;;;;42.38;20.45;;;;;;;1.48;100.00;101977.50;5185724;28;20036;-80
2021/03/03 07:04:40;;;;;;;41.95;20.33;;;;;;;1.44;100.00;101986.84;5185662;28;20025;-80
2021/03/03 07:07:12;;;;;;;40.33;19.48;;;;;;;1.58;100.00;101989.78;5185475;28;20018;-80
2021/03/03 07:09:48;;;;;;;41.28;20.20;;;;;;;1.91;100.00;101992.25;5185397;28;20113;-79
2021/03/03 07:12:23;;;;;;;;;;;;;;;2.01;100.00;101988.19;5191281;28;20029;-79
2021/03/03 07:15:08;;;;;;;37.70;18.02;;;;;;;1.89;100.00;101985.31;5200802;28;19917;-79
2021/03/03 07:17:42;;;;;;;39.65;18.42;;;;;;;2.26;100.00;101985.25;5183412;28;20065;-80
2021/03/03 07:20:15;;;;;;;36.90;18.98;;;;;;;2.29;100.00;101995.63;5185219;28;20029;-80
2021/03/03 07:22:47;;;;;;;36.10;18.67;;;;;;;2.31;100.00;101993.97;5184034;28;20026;-79
2021/03/03 07:25:20;;;;;;;34.83;18.67;;;;;;;2.55;100.00;101986.72;5183737;28;20026;-80
2021/03/03 07:27:51;;;;;;;36.38;18.92;;;;;;;2.63;100.00;101974.81;5200489;28;20388;-80
2021/03/03 07:30:24;;;;;;;32.83;17.35;;;;;;;2.85;100.00;101979.53;5200183;28;20040;-80
2021/03/03 07:32:55;;;;;;;33.47;17.05;;;;;;;3.26;100.00;101978.53;5185283;28;20025;-79
2021/03/03 07:35:25;;;;;;;30.48;16.23;;;;;;;4.91;100.00;101969.50;5185108;28;20076;-80
2021/03/03 07:37:57;;;;;;;31.45;14.80;;;;;;;6.57;95.72;101965.38;5183726;28;20120;-80
2021/03/03 07:40:29;;;;;;;26.10;14.15;;;;;;;7.87;86.80;101947.19;5196544;28;20029;-81
2021/03/03 07:43:01;;;;;;;22.70;12.60;;;;;;;9.60;82.70;101946.97;5220913;28;20079;-81
2021/03/03 07:45:38;;;;;;;21.08;12.65;;;;;;;8.77;79.29;101939.00;5211796;28;20081;-81
2021/03/03 07:48:10;;;;;;;21.17;11.32;;;;;;;9.39;76.25;101941.97;5194965;28;20038;-82
2021/03/03 07:50:41;;;;;;;18.10;11.65;;;;;;;8.40;80.87;101947.88;5212356;28;20018;-82
2021/03/03 07:53:12;;;;;;;18.40;12.05;;;;;;;9.51;76.79;101939.25;5211365;28;20116;-82
2021/03/03 07:55:44;;;;;;;17.05;10.88;;;;;;;10.64;71.23;101925.72;5212789;28;20024;-82
2021/03/03 07:58:14;;;;;;;17.55;11.85;;;;;;;9.24;78.46;101944.72;5211179;28;20049;-82
2021/03/03 08:00:45;;;;;;;17.55;11.27;;;;;;;8.97;79.84;101937.13;5211324;28;20022;-82
2021/03/03 08:03:45;;;;;;;16.30;11.48;;;;;;;9.55;78.25;101940.97;5211076;28;20044;-82
2021/03/03 08:06:30;;;;;;;17.55;10.95;;;;;;;11.76;71.97;101934.38;5194277;28;20029;-82
2021/03/03 08:09:06;;;;;;;15.77;10.52;;;;;;;12.33;68.79;101926.19;5210600;28;20042;-82
2021/03/03 08:11:45;;;;;;;14.55;9.65;;;;;;;13.38;68.35;101923.75;5195897;28;20029;-83
2021/03/03 08:14:30;;;;;;;14.95;10.23;;;;;;;14.07;65.10;101922.69;5196484;28;20022;-83
2021/03/03 08:17:05;;;;;;;14.40;9.32;;;;;;;13.79;65.52;101939.28;5208446;28;20021;-83
2021/03/03 08:19:52;;;;;;;14.82;10.10;;;;;;;14.18;62.33;101923.28;5191725;28;20037;-82
2021/03/03 08:22:48;;;;;;;14.98;9.50;;;;;;;14.60;64.70;101918.53;5207247;28;20037;-83
2021/03/03 08:25:37;;;;;;;;;;;;;;;13.96;66.64;101918.66;5192168;28;20030;-80
2021/03/03 08:28:23;;;;;;;15.52;9.50;;;;;;;15.49;62.32;101907.66;5191814;28;19918;-80
2021/03/03 08:31:12;;;;;;;14.88;9.98;;;;;;;15.32;64.18;101907.38;5189984;28;20097;-80
2021/03/03 08:33:49;;;;;;;13.70;9.57;;;;;;;14.10;67.28;101912.06;5235552;23;20446;-79
2021/03/03 08:36:19;;;;;;;12.95;9.02;;;;;;;15.03;65.27;101910.06;5201344;28;20031;-77
2021/03/03 08:38:55;;;;;;;13.53;8.93;;;;;;;15.41;63.44;101895.66;5201267;28;20096;-79
2021/03/03 08:41:26;;;;;;;13.48;8.75;;;;;;;15.36;64.44;101897.59;5201340;28;20032;-77
2021/03/03 08:44:12;;;;;;;13.60;9.32;;;;;;;16.32;62.21;101891.41;5204570;28;20022;-78
2021/03/03 08:46:44;;;;;;;14.13;9.13;;;;;;;15.74;64.45;101879.53;5216214;28;20025;-79
2021/03/03 08:49:14;;;;;;;13.18;9.20;;;;;;;15.60;64.47;101879.19;5219465;28;20040;-79
2021/03/03 08:51:49;;;;;;;15.47;9.23;;;;;;;15.67;64.35;101888.56;5202015;28;20037;-79
2021/03/03 08:54:35;;;;;;;12.98;8.98;;;;;;;16.32;64.19;101889.66;5202374;28;20033;-79
2021/03/03 08:57:25;;;;;;;;;;;;;;;15.37;66.21;101887.00;5202481;28;20037;-78
2021/03/03 08:59:56;;;;;;;13.20;8.65;;;;;;;14.93;69.04;101887.59;5204544;28;19913;-79
2021/03/03 09:02:36;;;;;;;16.20;9.80;;;;;;;14.59;68.89;101886.06;5206331;28;20025;-79
2021/03/03 09:05:09;;;;;;;13.40;9.70;;;;;;;15.91;66.38;101878.94;5205412;28;20104;-79
2021/03/03 09:07:40;;;;;;;16.92;9.50;;;;;;;16.08;64.33;101879.16;5221279;28;20036;-79
2021/03/03 09:10:15;;;;;;;17.17;8.55;;;;;;;15.59;65.30;101874.81;5223476;28;20509;-79
2021/03/03 09:12:46;;;;;;;14.88;9.00;;;;;;;15.23;66.55;101868.16;5205676;28;20033;-78
2021/03/03 09:15:17;;;;;;;15.82;9.65;;;;;;;14.53;68.42;101872.25;5205328;28;20160;-78
2021/03/03 09:17:48;;;;;;;13.45;9.40;;;;;;;14.73;69.11;101870.72;5205417;28;20036;-78
2021/03/03 09:20:21;;;;;;;13.70;8.95;;;;;;;14.21;70.70;101869.72;5205257;28;20495;-78
2021/03/03 09:22:51;;;;;;;15.63;9.38;;;;;;;12.91;76.93;101876.75;5204801;28;20453;-78
2021/03/03 09:25:22;;;;;;;14.65;9.52;;;;;;;12.21;79.48;101874.03;5204162;28;20021;-78
2021/03/03 09:27:54;;;;;;;14.25;9.82;;;;;;;12.75;78.48;101878.03;5204342;28;20505;-79
2021/03/03 09:30:27;;;;;;;17.65;10.02;;;;;;;12.71;78.30;101878.13;5203685;28;20503;-78
2021/03/03 09:33:05;;;;;;;15.38;10.27;;;;;;;13.00;75.82;101881.81;5203743;28;20072;-78
2021/03/03 09:35:35;;;;;;;16.42;9.98;;;;;;;12.79;77.00;101877.06;5206029;28;20080;-78
2021/03/03 09:38:10;;;;;;;15.90;9.75;;;;;;;13.18;77.56;101874.34;5207711;28;20025;-78
2021/03/03 09:40:40;;;;;;;16.60;10.45;;;;;;;12.88;78.00;101869.81;5205310;28;20033;-78
2021/03/03 09:43:15;;;;;;;16.33;10.10;;;;;;;13.03;75.84;101866.00;5203452;28;20121;-78
2021/03/03 09:45:45;;;;;;;15.98;9.90;;;;;;;12.88;77.69;101862.84;5203571;28;20029;-78
2021/03/03 09:48:16;;;;;;;17.85;10.27;;;;;;;12.79;78.56;101869.19;5203467;28;20438;-78
2021/03/03 09:50:46;;;;;;;16.85;9.75;;;;;;;12.64;77.92;101874.78;5203867;28;20028;-78
2021/03/03 09:53:16;;;;;;;20.30;10.18;;;;;;;12.66;78.80;101867.72;5202926;28;20075;-78
2021/03/03 09:55:46;;;;;;;16.48;10.00;;;;;;;12.29;80.79;101866.84;5202958;28;20025;-78
2021/03/03 09:58:17;;;;;;;18.30;11.13;;;;;;;12.15;81.12;101868.91;5203013;28;20025;-78
2021/03/03 10:00:47;;;;;;;18.10;10.70;;;;;;;12.33;81.40;101858.00;5202814;28;20108;-78
2021/03/03 10:03:18;;;;;;;16.70;10.80;;;;;;;12.13;82.25;101857.59;5203084;28;20033;-78
2021/03/03 10:05:54;;;;;;;19.17;10.80;;;;;;;11.89;85.78;101850.25;5214206;28;20021;-78
2021/03/03 10:08:25;;;;;;;16.30;10.25;;;;;;;12.06;84.16;101853.38;5223932;28;20047;-78
2021/03/03 10:10:56;;;;;;;15.90;10.43;;;;;;;11.95;84.33;101849.28;5210720;28;20032;-78
2021/03/03 10:13:27;;;;;;;15.55;10.43;;;;;;;12.12;82.24;101845.38;5201708;28;20018;-78
2021/03/03 10:15:57;;;;;;;16.48;10.63;;;;;;;12.23;83.70;101839.91;5202634;28;20025;-77
2021/03/03 10:18:28;;;;;;;18.42;11.02;;;;;;;12.44;83.86;101839.44;5203387;28;20379;-78
2021/03/03 10:20:59;;;;;;;17.33;10.73;;;;;;;12.74;81.93;101839.56;5202842;28;20056;-78
2021/03/03 10:23:33;;;;;;;19.08;10.55;;;;;;;12.68;81.59;101839.72;5203467;28;20053;-78
2021/03/03 10:26:05;;;;;;;17.95;10.35;;;;;;;12.75;80.76;101841.31;5203130;28;20684;-78
2021/03/03 10:28:37;;;;;;;18.13;11.00;;;;;;;13.03;80.36;101831.88;5203264;28;20585;-78
2021/03/03 10:31:15;;;;;;;22.58;10.85;;;;;;;13.27;76.12;101832.06;5202955;28;20029;-78
2021/03/03 10:33:49;;;;;;;20.95;10.95;;;;;;;13.57;75.22;101826.00;5202623;28;20107;-78
2021/03/03 10:36:21;;;;;;;17.67;10.98;;;;;;;13.50;72.96;101827.09;5202572;28;20025;-78
2021/03/03 10:38:55;;;;;;;25.73;11.95;;;;;;;13.76;73.13;101815.84;5202933;28;20041;-78
2021/03/03 10:41:28;;;;;;;25.42;11.35;;;;;;;13.73;72.36;101806.28;5200247;28;20017;-78
2021/03/03 10:44:03;;;;;;;20.13;10.55;;;;;;;13.66;73.23;101814.38;5202548;28;20511;-78
2021/03/03 10:46:43;;;;;;;23.60;12.07;;;;;;;13.77;70.94;101817.56;5202781;28;20104;-78
2021/03/03 10:49:18;;;;;;;22.02;11.00;;;;;;;13.73;71.47;101815.94;5202089;28;20405;-78
2021/03/03 10:51:48;;;;;;;25.52;11.10;;;;;;;13.68;71.41;101817.81;5202791;28;20029;-78
2021/03/03 10:54:30;;;;;;;20.48;10.27;;;;;;;13.64;72.22;101811.81;5202361;28;20437;-78
2021/03/03 10:57:06;;;;;;;23.35;11.18;;;;;;;13.52;71.51;101814.78;5202741;28;20025;-78
2021/03/03 10:59:37;;;;;;;22.60;10.93;;;;;;;13.78;69.90;101808.78;5202032;28;20025;-78
2021/03/03 11:02:08;;;;;;;19.63;10.70;;;;;;;13.90;70.39;101797.91;5202268;28;20025;-78
2021/03/03 11:04:44;;;;;;;25.48;11.30;;;;;;;14.10;68.93;101800.81;5202219;28;20029;-78
2021/03/03 11:07:15;;;;;;;;;;;;;;;14.27;69.01;101793.28;5203801;28;20029;-78
2021/03/03 11:09:51;;;;;;;23.95;10.57;;;;;;;14.25;68.53;101795.13;5205045;28;19971;-78
2021/03/03 11:12:22;;;;;;;23.83;11.05;;;;;;;14.16;66.41;101791.00;5204245;28;20087;-78
2021/03/03 11:14:53;;;;;;;22.30;11.02;;;;;;;14.21;67.81;101798.72;5202025;28;20048;-78
2021/03/03 11:17:24;;;;;;;21.13;10.80;;;;;;;14.19;67.62;101787.41;5198533;28;20029;-78
2021/03/03 11:19:54;;;;;;;25.05;10.20;;;;;;;14.08;68.12;101781.59;5200701;28;20475;-78
2021/03/03 11:22:24;;;;;;;22.67;10.95;;;;;;;14.08;68.46;101782.44;5201867;28;20026;-78
2021/03/03 11:24:54;;;;;;;20.95;11.25;;;;;;;14.13;68.75;101784.94;5201672;28;20025;-78
2021/03/03 11:27:25;;;;;;;18.98;9.93;;;;;;;14.25;68.54;101780.19;5202433;28;20112;-78
2021/03/03 11:29:56;;;;;;;22.73;11.18;;;;;;;14.23;67.66;101775.91;5201210;28;20337;-78
2021/03/03 11:32:26;;;;;;;25.23;11.07;;;;;;;14.28;67.92;101758.19;5200794;28;20492;-78
2021/03/03 11:34:56;;;;;;;26.85;11.80;;;;;;;14.50;66.00;101753.97;5202058;28;20033;-78
2021/03/03 11:37:26;;;;;;;24.88;11.35;;;;;;;14.55;65.56;101747.63;5202289;28;20083;-78
2021/03/03 11:39:57;;;;;;;25.13;11.93;;;;;;;14.55;65.61;101744.13;5201785;28;20033;-78